createdAt,value
2019-05-06T00:00:24.587Z,993.59
2019-05-06T00:01:24.088Z,993.62
2019-05-06T00:02:24.582Z,993.58
2019-05-06T00:03:24.731Z,993.60
2019-05-06T00:04:24.703Z,993.58
2019-05-06T00:05:25.482Z,993.51
2019-05-06T00:06:23.852Z,993.53
2019-05-06T00:07:24.263Z,993.50
2019-05-06T00:08:23.792Z,993.55
2019-05-06T00:09:24.091Z,993.54
2019-05-06T00:10:24.518Z,993.51
2019-05-06T00:11:23.991Z,993.52
2019-05-06T00:12:24.000Z,993.53
2019-05-06T00:13:24.170Z,993.52
2019-05-06T00:14:23.689Z,993.53
2019-05-06T00:15:23.597Z,993.57
2019-05-06T00:16:23.858Z,993.57
2019-05-06T00:17:24.016Z,993.53
2019-05-06T00:18:24.501Z,993.54
2019-05-06T00:19:24.689Z,993.57
2019-05-06T00:20:24.321Z,993.59
2019-05-06T00:21:24.358Z,993.57
2019-05-06T00:22:23.798Z,993.61
2019-05-06T00:23:24.942Z,993.62
2019-05-06T00:24:23.967Z,993.70
2019-05-06T00:25:24.286Z,993.65
2019-05-06T00:26:24.318Z,993.64
2019-05-06T00:27:24.724Z,993.68
2019-05-06T00:28:24.447Z,993.63
2019-05-06T00:29:24.196Z,993.65
2019-05-06T00:30:24.354Z,993.57
2019-05-06T00:31:23.975Z,993.61
2019-05-06T00:32:24.305Z,993.60
2019-05-06T00:33:24.278Z,993.60
2019-05-06T00:34:24.588Z,993.62
2019-05-06T00:35:23.503Z,993.61
2019-05-06T00:36:23.818Z,993.58
2019-05-06T00:37:24.116Z,993.58
2019-05-06T00:38:24.618Z,993.53
2019-05-06T00:39:24.332Z,993.62
2019-05-06T00:40:24.394Z,993.61
2019-05-06T00:41:24.702Z,993.58
2019-05-06T00:42:24.612Z,993.64
2019-05-06T00:43:23.657Z,993.62
2019-05-06T00:44:23.915Z,993.60
2019-05-06T00:45:24.371Z,993.64
2019-05-06T00:46:24.294Z,993.64
2019-05-06T00:47:24.579Z,993.67
2019-05-06T00:48:24.414Z,993.67
2019-05-06T00:49:23.855Z,993.62
2019-05-06T00:50:23.912Z,993.65
2019-05-06T00:51:24.148Z,993.59
2019-05-06T00:52:25.737Z,993.58
2019-05-06T00:53:23.905Z,993.59
2019-05-06T00:54:24.815Z,993.61
2019-05-06T00:55:24.125Z,993.61
2019-05-06T00:56:24.344Z,993.60
2019-05-06T00:57:23.440Z,993.56
2019-05-06T00:58:23.864Z,993.57
2019-05-06T00:59:23.814Z,993.62
2019-05-06T01:00:24.401Z,993.57
2019-05-06T01:01:28.752Z,993.52
2019-05-06T01:02:24.143Z,993.51
2019-05-06T01:03:23.935Z,993.52
2019-05-06T01:04:24.486Z,993.52
2019-05-06T01:05:24.448Z,993.53
2019-05-06T01:06:24.651Z,993.51
2019-05-06T01:07:23.703Z,993.52
2019-05-06T01:08:23.998Z,993.49
2019-05-06T01:09:23.488Z,993.51
2019-05-06T01:10:23.822Z,993.50
2019-05-06T01:11:23.894Z,993.48
2019-05-06T01:12:23.993Z,993.52
2019-05-06T01:13:24.156Z,993.48
2019-05-06T01:14:23.523Z,993.52
2019-05-06T01:15:23.862Z,993.52
2019-05-06T01:16:24.915Z,993.49
2019-05-06T01:17:24.336Z,993.54
2019-05-06T01:18:24.483Z,993.56
2019-05-06T01:19:23.570Z,993.56
2019-05-06T01:20:24.635Z,993.55
2019-05-06T01:21:23.806Z,993.59
2019-05-06T01:22:24.676Z,993.60
2019-05-06T01:23:23.450Z,993.55
2019-05-06T01:24:23.842Z,993.57
2019-05-06T01:25:23.747Z,993.58
2019-05-06T01:26:24.290Z,993.62
2019-05-06T01:27:24.056Z,993.59
2019-05-06T01:28:24.481Z,993.60
2019-05-06T01:29:24.088Z,993.54
2019-05-06T01:30:24.340Z,993.57
2019-05-06T01:31:24.696Z,993.59
2019-05-06T01:32:23.632Z,993.59
2019-05-06T01:33:24.123Z,993.58
2019-05-06T01:34:24.498Z,993.59
2019-05-06T01:35:24.519Z,993.60
2019-05-06T01:36:24.771Z,993.63
2019-05-06T01:37:23.973Z,993.60
2019-05-06T01:38:24.264Z,993.61
2019-05-06T01:39:24.431Z,993.58
2019-05-06T01:40:23.877Z,993.57
2019-05-06T01:41:24.367Z,993.63
2019-05-06T01:42:24.619Z,993.62
2019-05-06T01:43:24.139Z,993.59
2019-05-06T01:44:24.383Z,993.61
2019-05-06T01:45:23.769Z,993.57
2019-05-06T01:46:24.291Z,993.62
2019-05-06T01:47:23.784Z,993.59
2019-05-06T01:48:24.476Z,993.59
2019-05-06T01:49:24.432Z,993.59
2019-05-06T01:50:23.560Z,993.62
2019-05-06T01:51:24.079Z,993.56
2019-05-06T01:52:24.054Z,993.62
2019-05-06T01:53:24.173Z,993.65
2019-05-06T01:54:24.764Z,993.62
2019-05-06T01:55:23.898Z,993.60
2019-05-06T01:56:24.124Z,993.58
2019-05-06T01:57:24.404Z,993.62
2019-05-06T01:58:24.285Z,993.62
2019-05-06T01:59:24.437Z,993.62
2019-05-06T02:00:23.689Z,993.63
2019-05-06T02:01:24.883Z,993.61
2019-05-06T02:02:23.934Z,993.60
2019-05-06T02:03:24.225Z,993.65
2019-05-06T02:04:24.346Z,993.64
2019-05-06T02:05:24.201Z,993.66
2019-05-06T02:06:24.789Z,993.63
2019-05-06T02:07:24.176Z,993.65
2019-05-06T02:08:24.337Z,993.63
2019-05-06T02:09:24.606Z,993.64
2019-05-06T02:10:23.847Z,993.65
2019-05-06T02:11:24.094Z,993.66
2019-05-06T02:12:24.519Z,993.59
2019-05-06T02:13:23.803Z,993.61
2019-05-06T02:14:24.494Z,993.60
2019-05-06T02:15:23.880Z,993.64
2019-05-06T02:16:24.062Z,993.58
2019-05-06T02:17:23.901Z,993.60
2019-05-06T02:18:24.245Z,993.60
2019-05-06T02:19:24.163Z,993.63
2019-05-06T02:20:24.507Z,993.56
2019-05-06T02:21:24.465Z,993.57
2019-05-06T02:22:24.091Z,993.63
2019-05-06T02:23:24.108Z,993.64
2019-05-06T02:24:24.191Z,993.67
2019-05-06T02:25:24.329Z,993.64
2019-05-06T02:26:23.906Z,993.62
2019-05-06T02:27:22.223Z,993.65
2019-05-06T02:28:23.580Z,993.63
2019-05-06T02:29:24.451Z,993.64
2019-05-06T02:30:25.023Z,993.62
2019-05-06T02:31:25.500Z,993.57
2019-05-06T02:32:28.941Z,993.61
2019-05-06T02:33:24.606Z,993.59
2019-05-06T02:34:25.118Z,993.60
2019-05-06T02:35:26.079Z,993.59
2019-05-06T02:36:25.572Z,993.57
2019-05-06T02:37:25.144Z,993.63
2019-05-06T02:38:23.411Z,993.64
2019-05-06T02:39:23.498Z,993.61
2019-05-06T02:40:24.894Z,993.62
2019-05-06T02:41:23.245Z,993.63
2019-05-06T02:42:23.889Z,993.65
2019-05-06T02:43:23.134Z,993.61
2019-05-06T02:44:23.957Z,993.64
2019-05-06T02:45:23.890Z,993.64
2019-05-06T02:46:23.776Z,993.65
2019-05-06T02:47:23.001Z,993.63
2019-05-06T02:48:22.890Z,993.67
2019-05-06T02:49:23.702Z,993.64
2019-05-06T02:50:23.909Z,993.63
2019-05-06T02:51:24.413Z,993.61
2019-05-06T02:52:22.952Z,993.62
2019-05-06T02:53:23.610Z,993.65
2019-05-06T02:54:23.459Z,993.61
2019-05-06T02:55:23.567Z,993.60
2019-05-06T02:56:24.013Z,993.57
2019-05-06T02:57:23.722Z,993.59
2019-05-06T02:58:23.783Z,993.56
2019-05-06T02:59:24.029Z,993.57
2019-05-06T03:00:23.852Z,993.55
2019-05-06T03:01:23.359Z,993.55
2019-05-06T03:02:39.075Z,993.59
2019-05-06T03:03:23.366Z,993.61
2019-05-06T03:04:23.652Z,993.59
2019-05-06T03:05:23.750Z,993.56
2019-05-06T03:06:23.808Z,993.59
2019-05-06T03:07:23.372Z,993.61
2019-05-06T03:08:23.701Z,993.60
2019-05-06T03:09:23.299Z,993.58
2019-05-06T03:10:24.768Z,993.57
2019-05-06T03:11:23.998Z,993.57
2019-05-06T03:12:22.860Z,993.57
2019-05-06T03:13:23.633Z,993.61
2019-05-06T03:14:23.348Z,993.58
2019-05-06T03:15:23.956Z,993.57
2019-05-06T03:16:23.792Z,993.55
2019-05-06T03:17:23.489Z,993.52
2019-05-06T03:18:23.593Z,993.51
2019-05-06T03:19:23.964Z,993.56
2019-05-06T03:20:23.650Z,993.58
2019-05-06T03:21:24.605Z,993.54
2019-05-06T03:22:27.382Z,993.51
2019-05-06T03:23:23.648Z,993.50
2019-05-06T03:24:23.695Z,993.45
2019-05-06T03:25:24.022Z,993.53
2019-05-06T03:26:23.587Z,993.46
2019-05-06T03:27:23.536Z,993.48
2019-05-06T03:28:22.556Z,993.51
2019-05-06T03:29:21.556Z,993.50
2019-05-06T03:30:25.599Z,993.48
2019-05-06T03:31:26.130Z,993.50
2019-05-06T03:32:29.793Z,993.51
2019-05-06T03:33:47.639Z,993.46
2019-05-06T03:34:49.330Z,993.47
2019-05-06T03:35:40.644Z,993.48
2019-05-06T03:36:27.266Z,993.48
2019-05-06T03:37:23.944Z,993.44
2019-05-06T03:38:22.909Z,993.44
2019-05-06T03:39:23.215Z,993.45
2019-05-06T03:40:23.073Z,993.43
2019-05-06T03:41:23.371Z,993.42
2019-05-06T03:42:23.042Z,993.41
2019-05-06T03:43:23.299Z,993.44
2019-05-06T03:44:23.866Z,993.45
2019-05-06T03:45:23.708Z,993.41
2019-05-06T03:46:23.205Z,993.41
2019-05-06T03:47:23.471Z,993.41
2019-05-06T03:48:23.817Z,993.40
2019-05-06T03:49:23.815Z,993.35
2019-05-06T03:50:23.806Z,993.37
2019-05-06T03:51:23.364Z,993.35
2019-05-06T03:52:23.219Z,993.37
2019-05-06T03:53:23.227Z,993.35
2019-05-06T03:54:23.199Z,993.39
2019-05-06T03:55:23.485Z,993.42
2019-05-06T03:56:23.846Z,993.51
2019-05-06T03:57:23.229Z,993.46
2019-05-06T03:58:26.317Z,993.50
2019-05-06T03:59:23.284Z,993.49
2019-05-06T04:00:23.685Z,993.52
2019-05-06T04:01:24.069Z,993.54
2019-05-06T04:02:23.736Z,993.60
2019-05-06T04:03:33.745Z,993.59
2019-05-06T04:04:23.396Z,993.56
2019-05-06T04:05:23.877Z,993.58
2019-05-06T04:06:23.887Z,993.55
2019-05-06T04:07:23.404Z,993.61
2019-05-06T04:08:23.960Z,993.61
2019-05-06T04:09:23.905Z,993.62
2019-05-06T04:10:22.897Z,993.63
2019-05-06T04:11:22.879Z,993.65
2019-05-06T04:12:23.302Z,993.62
2019-05-06T04:13:23.193Z,993.62
2019-05-06T04:14:23.711Z,993.55
2019-05-06T04:15:22.983Z,993.58
2019-05-06T04:16:23.096Z,993.60
2019-05-06T04:17:23.657Z,993.61
2019-05-06T04:18:23.910Z,993.64
2019-05-06T04:19:23.488Z,993.62
2019-05-06T04:20:23.603Z,993.61
2019-05-06T04:21:23.997Z,993.62
2019-05-06T04:22:23.528Z,993.61
2019-05-06T04:23:23.375Z,993.62
2019-05-06T04:24:22.909Z,993.59
2019-05-06T04:25:23.298Z,993.56
2019-05-06T04:26:23.806Z,993.56
2019-05-06T04:27:22.803Z,993.58
2019-05-06T04:28:23.605Z,993.53
2019-05-06T04:29:23.837Z,993.59
2019-05-06T04:30:24.047Z,993.57
2019-05-06T04:31:22.837Z,993.58
2019-05-06T04:32:23.339Z,993.59
2019-05-06T04:33:23.486Z,993.63
2019-05-06T04:34:23.381Z,993.66
2019-05-06T04:35:22.937Z,993.66
2019-05-06T04:36:23.511Z,993.64
2019-05-06T04:37:23.927Z,993.64
2019-05-06T04:38:23.481Z,993.57
2019-05-06T04:39:23.429Z,993.60
2019-05-06T04:40:23.564Z,993.61
2019-05-06T04:41:23.089Z,993.61
2019-05-06T04:42:23.269Z,993.61
2019-05-06T04:43:26.291Z,993.64
2019-05-06T04:44:23.722Z,993.61
2019-05-06T04:45:23.557Z,993.57
2019-05-06T04:46:23.660Z,993.64
2019-05-06T04:47:23.832Z,993.62
2019-05-06T04:48:23.483Z,993.64
2019-05-06T04:49:23.515Z,993.64
2019-05-06T04:50:23.861Z,993.68
2019-05-06T04:51:20.703Z,993.65
2019-05-06T04:52:25.575Z,993.68
2019-05-06T04:53:26.403Z,993.63
2019-05-06T04:54:26.215Z,993.65
2019-05-06T04:55:22.650Z,993.68
2019-05-06T04:56:23.436Z,993.67
2019-05-06T04:57:23.475Z,993.64
2019-05-06T04:58:23.125Z,993.65
2019-05-06T04:59:23.102Z,993.67
2019-05-06T05:00:23.251Z,993.66
2019-05-06T05:01:23.138Z,993.66
2019-05-06T05:02:22.886Z,993.65
2019-05-06T05:03:22.813Z,993.61
2019-05-06T05:04:27.787Z,993.62
2019-05-06T05:05:23.143Z,993.67
2019-05-06T05:06:22.943Z,993.67
2019-05-06T05:07:22.465Z,993.64
2019-05-06T05:08:22.339Z,993.65
2019-05-06T05:09:22.881Z,993.63
2019-05-06T05:10:23.114Z,993.68
2019-05-06T05:11:22.700Z,993.62
2019-05-06T05:12:22.699Z,993.60
2019-05-06T05:13:22.978Z,993.59
2019-05-06T05:14:25.323Z,993.62
2019-05-06T05:15:22.768Z,993.60
2019-05-06T05:16:22.124Z,993.66
2019-05-06T05:17:22.341Z,993.62
2019-05-06T05:18:22.132Z,993.61
2019-05-06T05:19:20.402Z,993.66
2019-05-06T05:20:35.904Z,993.61
2019-05-06T05:21:22.916Z,993.64
2019-05-06T05:22:21.935Z,993.62
2019-05-06T05:23:22.808Z,993.65
2019-05-06T05:24:20.363Z,993.66
2019-05-06T05:25:22.120Z,993.66
2019-05-06T05:26:22.399Z,993.63
2019-05-06T05:27:21.962Z,993.60
2019-05-06T05:28:22.311Z,993.67
2019-05-06T05:29:20.300Z,993.63
2019-05-06T05:30:22.026Z,993.67
2019-05-06T05:31:20.279Z,993.67
2019-05-06T05:32:22.340Z,993.68
2019-05-06T05:33:22.348Z,993.72
2019-05-06T05:34:22.308Z,993.76
2019-05-06T05:35:20.243Z,993.71
2019-05-06T05:36:20.219Z,993.73
2019-05-06T05:37:20.220Z,993.69
2019-05-06T05:38:22.619Z,993.72
2019-05-06T05:39:21.818Z,993.72
2019-05-06T05:40:20.178Z,993.76
2019-05-06T05:41:20.393Z,993.73
2019-05-06T05:42:22.065Z,993.75
2019-05-06T05:43:20.154Z,993.69
2019-05-06T05:44:20.153Z,993.75
2019-05-06T05:45:22.066Z,993.74
2019-05-06T05:46:21.849Z,993.77
2019-05-06T05:47:22.084Z,993.81
2019-05-06T05:48:20.091Z,993.78
2019-05-06T05:49:21.927Z,993.78
2019-05-06T05:50:20.088Z,993.76
2019-05-06T05:51:22.129Z,993.72
2019-05-06T05:52:22.202Z,993.74
2019-05-06T05:53:20.039Z,993.74
2019-05-06T05:54:20.057Z,993.74
2019-05-06T05:55:21.952Z,993.75
2019-05-06T05:56:20.046Z,993.73
2019-05-06T05:57:20.009Z,993.72
2019-05-06T05:58:20.010Z,993.71
2019-05-06T05:59:20.015Z,993.73
2019-05-06T06:00:22.368Z,993.74
2019-05-06T06:01:20.005Z,993.73
2019-05-06T06:02:21.949Z,993.75
2019-05-06T06:03:21.956Z,993.76
2019-05-06T06:04:22.297Z,993.78
2019-05-06T06:05:21.822Z,993.74
2019-05-06T06:06:21.645Z,993.74
2019-05-06T06:07:19.894Z,993.71
2019-05-06T06:08:22.808Z,993.74
2019-05-06T06:09:19.877Z,993.73
2019-05-06T06:10:19.883Z,993.74
2019-05-06T06:11:19.857Z,993.77
2019-05-06T06:12:19.889Z,993.71
2019-05-06T06:13:19.843Z,993.79
2019-05-06T06:14:21.555Z,993.77
2019-05-06T06:15:22.302Z,993.78
2019-05-06T06:16:19.804Z,993.78
2019-05-06T06:17:19.786Z,993.77
2019-05-06T06:18:19.803Z,993.78
2019-05-06T06:19:22.033Z,993.76
2019-05-06T06:20:22.036Z,993.76
2019-05-06T06:21:27.099Z,993.74
2019-05-06T06:22:22.338Z,993.73
2019-05-06T06:23:19.755Z,993.79
2019-05-06T06:24:19.721Z,993.75
2019-05-06T06:25:23.358Z,993.75
2019-05-06T06:26:19.690Z,993.72
2019-05-06T06:27:19.681Z,993.78
2019-05-06T06:28:19.671Z,993.79
2019-05-06T06:29:19.673Z,993.78
2019-05-06T06:30:19.673Z,993.73
2019-05-06T06:31:19.646Z,993.78
2019-05-06T06:32:19.636Z,993.72
2019-05-06T06:33:22.159Z,993.71
2019-05-06T06:34:19.616Z,993.69
2019-05-06T06:35:19.624Z,993.71
2019-05-06T06:36:19.590Z,993.70
2019-05-06T06:37:19.574Z,993.60
2019-05-06T06:38:19.571Z,993.66
2019-05-06T06:39:19.565Z,993.63
2019-05-06T06:40:19.559Z,993.65
2019-05-06T06:41:19.532Z,993.69
2019-05-06T06:42:19.534Z,993.74
2019-05-06T06:43:19.525Z,993.75
2019-05-06T06:44:19.530Z,993.74
2019-05-06T06:45:19.525Z,993.72
2019-05-06T06:46:19.483Z,993.71
2019-05-06T06:47:19.473Z,993.76
2019-05-06T06:48:19.469Z,993.72
2019-05-06T06:49:19.448Z,993.73
2019-05-06T06:50:19.441Z,993.74
2019-05-06T06:51:19.468Z,993.75
2019-05-06T06:52:19.436Z,993.72
2019-05-06T06:53:19.427Z,993.72
2019-05-06T06:54:19.406Z,993.75
2019-05-06T06:55:19.380Z,993.68
2019-05-06T06:56:19.410Z,993.68
2019-05-06T06:57:19.368Z,993.67
2019-05-06T06:58:19.353Z,993.69
2019-05-06T06:59:19.342Z,993.66
2019-05-06T07:00:19.330Z,993.68
2019-05-06T07:01:19.347Z,993.65
2019-05-06T07:02:19.360Z,993.69
2019-05-06T07:03:19.317Z,993.66
2019-05-06T07:04:19.288Z,993.62
2019-05-06T07:05:27.696Z,993.62
2019-05-06T07:06:22.336Z,993.63
2019-05-06T07:07:19.285Z,993.64
2019-05-06T07:08:32.042Z,993.65
2019-05-06T07:09:20.234Z,993.68
2019-05-06T07:10:19.221Z,993.70
2019-05-06T07:11:19.239Z,993.68
2019-05-06T07:12:19.339Z,993.65
2019-05-06T07:13:19.204Z,993.66
2019-05-06T07:14:19.192Z,993.69
2019-05-06T07:15:19.172Z,993.65
2019-05-06T07:16:20.745Z,993.77
2019-05-06T07:17:19.167Z,993.73
2019-05-06T07:18:19.153Z,993.75
2019-05-06T07:19:19.126Z,993.74
2019-05-06T07:20:19.140Z,993.78
2019-05-06T07:21:19.126Z,993.79
2019-05-06T07:22:19.094Z,993.83
2019-05-06T07:23:19.093Z,993.78
2019-05-06T07:24:19.095Z,993.80
2019-05-06T07:25:19.095Z,993.83
2019-05-06T07:26:19.393Z,993.82
2019-05-06T07:27:19.046Z,993.84
2019-05-06T07:28:19.062Z,993.78
2019-05-06T07:29:23.485Z,993.78
2019-05-06T07:30:20.023Z,993.79
2019-05-06T07:31:25.715Z,993.80
2019-05-06T07:32:20.027Z,993.82
2019-05-06T07:33:18.981Z,993.76
2019-05-06T07:34:18.965Z,993.81
2019-05-06T07:35:18.962Z,993.82
2019-05-06T07:36:20.234Z,993.82
2019-05-06T07:37:18.959Z,993.79
2019-05-06T07:38:18.931Z,993.85
2019-05-06T07:39:18.924Z,993.82
2019-05-06T07:40:18.912Z,993.85
2019-05-06T07:41:18.898Z,993.85
2019-05-06T07:42:18.897Z,993.86
2019-05-06T07:43:18.882Z,993.85
2019-05-06T07:44:18.870Z,993.83
2019-05-06T07:45:18.851Z,993.85
2019-05-06T07:46:18.844Z,993.86
2019-05-06T07:47:18.846Z,993.92
2019-05-06T07:48:18.853Z,993.92
2019-05-06T07:49:18.809Z,993.89
2019-05-06T07:50:18.812Z,993.88
2019-05-06T07:51:18.799Z,993.92
2019-05-06T07:52:18.805Z,993.84
2019-05-06T07:53:18.776Z,993.90
2019-05-06T07:54:18.761Z,993.88
2019-05-06T07:55:18.751Z,993.90
2019-05-06T07:56:18.735Z,993.88
2019-05-06T07:57:18.740Z,993.89
2019-05-06T07:58:18.717Z,993.86
2019-05-06T07:59:18.730Z,993.90
2019-05-06T08:00:18.699Z,993.87
2019-05-06T08:01:18.691Z,993.82
2019-05-06T08:02:18.687Z,993.88
2019-05-06T08:03:18.661Z,993.86
2019-05-06T08:04:18.651Z,993.86
2019-05-06T08:05:18.643Z,993.78
2019-05-06T08:06:18.636Z,993.80
2019-05-06T08:07:18.641Z,993.79
2019-05-06T08:08:18.610Z,993.76
2019-05-06T08:09:18.821Z,993.80
2019-05-06T08:10:18.601Z,993.78
2019-05-06T08:11:18.573Z,993.82
2019-05-06T08:12:18.605Z,993.75
2019-05-06T08:13:18.547Z,993.77
2019-05-06T08:14:18.536Z,993.72
2019-05-06T08:15:18.541Z,993.74
2019-05-06T08:16:18.518Z,993.72
2019-05-06T08:17:18.517Z,993.69
2019-05-06T08:18:18.518Z,993.65
2019-05-06T08:19:18.493Z,993.67
2019-05-06T08:20:18.518Z,993.63
2019-05-06T08:21:18.487Z,993.68
2019-05-06T08:22:18.454Z,993.65
2019-05-06T08:23:18.476Z,993.68
2019-05-06T08:24:18.461Z,993.64
2019-05-06T08:25:18.435Z,993.64
2019-05-06T08:26:18.419Z,993.61
2019-05-06T08:27:18.416Z,993.60
2019-05-06T08:28:18.404Z,993.63
2019-05-06T08:29:18.381Z,993.65
2019-05-06T08:30:18.650Z,993.69
2019-05-06T08:31:18.365Z,993.72
2019-05-06T08:32:18.356Z,993.72
2019-05-06T08:33:18.367Z,993.74
2019-05-06T08:34:18.321Z,993.72
2019-05-06T08:35:18.317Z,993.67
2019-05-06T08:36:18.328Z,993.73
2019-05-06T08:37:18.291Z,993.73
2019-05-06T08:38:18.321Z,993.68
2019-05-06T08:39:18.281Z,993.65
2019-05-06T08:40:18.260Z,993.59
2019-05-06T08:41:18.286Z,993.68
2019-05-06T08:42:18.241Z,993.69
2019-05-06T08:43:18.257Z,993.67
2019-05-06T08:44:18.216Z,993.70
2019-05-06T08:45:18.231Z,993.72
2019-05-06T08:46:18.201Z,993.67
2019-05-06T08:47:18.181Z,993.66
2019-05-06T08:48:18.235Z,993.70
2019-05-06T08:49:18.200Z,993.69
2019-05-06T08:50:18.165Z,993.67
2019-05-06T08:51:18.163Z,993.65
2019-05-06T08:52:18.140Z,993.66
2019-05-06T08:53:18.146Z,993.66
2019-05-06T08:54:18.107Z,993.60
2019-05-06T08:55:18.104Z,993.60
2019-05-06T08:56:18.091Z,993.58
2019-05-06T08:57:18.082Z,993.71
2019-05-06T08:58:18.091Z,993.69
2019-05-06T08:59:18.071Z,993.70
2019-05-06T09:00:18.045Z,993.64
2019-05-06T09:01:18.042Z,993.63
2019-05-06T09:02:18.025Z,993.60
2019-05-06T09:03:18.041Z,993.63
2019-05-06T09:04:18.010Z,993.68
2019-05-06T09:05:17.998Z,993.66
2019-05-06T09:06:29.650Z,993.64
2019-05-06T09:07:18.979Z,993.62
2019-05-06T09:08:17.993Z,993.54
2019-05-06T09:09:18.011Z,993.60
2019-05-06T09:10:17.936Z,993.50
2019-05-06T09:11:17.928Z,993.57
2019-05-06T09:12:17.976Z,993.54
2019-05-06T09:13:17.924Z,993.54
2019-05-06T09:14:17.931Z,993.51
2019-05-06T09:15:17.897Z,993.54
2019-05-06T09:16:17.888Z,993.58
2019-05-06T09:17:17.862Z,993.55
2019-05-06T09:18:17.857Z,993.52
2019-05-06T09:19:17.871Z,993.48
2019-05-06T09:20:17.849Z,993.41
2019-05-06T09:21:17.856Z,993.43
2019-05-06T09:22:17.814Z,993.39
2019-05-06T09:23:17.801Z,993.37
2019-05-06T09:24:17.812Z,993.39
2019-05-06T09:25:17.785Z,993.38
2019-05-06T09:26:17.794Z,993.39
2019-05-06T09:27:17.757Z,993.33
2019-05-06T09:28:17.747Z,993.39
2019-05-06T09:29:17.750Z,993.35
2019-05-06T09:30:17.722Z,993.41
2019-05-06T09:31:17.735Z,993.33
2019-05-06T09:32:17.712Z,993.40
2019-05-06T09:33:17.904Z,993.46
2019-05-06T09:34:17.700Z,993.38
2019-05-06T09:35:17.688Z,993.42
2019-05-06T09:36:17.659Z,993.45
2019-05-06T09:37:17.655Z,993.44
2019-05-06T09:38:17.638Z,993.42
2019-05-06T09:39:17.652Z,993.50
2019-05-06T09:40:17.619Z,993.45
2019-05-06T09:41:17.607Z,993.43
2019-05-06T09:42:17.593Z,993.42
2019-05-06T09:43:17.590Z,993.36
2019-05-06T09:44:17.622Z,993.39
2019-05-06T09:45:17.570Z,993.40
2019-05-06T09:46:17.621Z,993.46
2019-05-06T09:47:17.542Z,993.41
2019-05-06T09:48:17.543Z,993.38
2019-05-06T09:49:17.522Z,993.46
2019-05-06T09:50:17.527Z,993.40
2019-05-06T09:51:17.501Z,993.44
2019-05-06T09:52:17.490Z,993.46
2019-05-06T09:53:17.491Z,993.43
2019-05-06T09:54:17.519Z,993.37
2019-05-06T09:55:17.482Z,993.38
2019-05-06T09:56:17.475Z,993.35
2019-05-06T09:57:17.448Z,993.35
2019-05-06T09:58:17.480Z,993.38
2019-05-06T09:59:17.413Z,993.35
2019-05-06T10:00:17.505Z,993.37
2019-05-06T10:01:17.422Z,993.32
2019-05-06T10:02:17.392Z,993.36
2019-05-06T10:03:17.371Z,993.36
2019-05-06T10:04:17.368Z,993.31
2019-05-06T10:05:17.380Z,993.34
2019-05-06T10:06:17.364Z,993.33
2019-05-06T10:07:17.334Z,993.32
2019-05-06T10:08:17.320Z,993.30
2019-05-06T10:09:17.325Z,993.31
2019-05-06T10:10:17.839Z,993.28
2019-05-06T10:11:17.293Z,993.30
2019-05-06T10:12:17.293Z,993.26
2019-05-06T10:13:17.269Z,993.22
2019-05-06T10:14:17.302Z,993.26
2019-05-06T10:15:17.266Z,993.33
2019-05-06T10:16:17.243Z,993.23
2019-05-06T10:17:17.253Z,993.29
2019-05-06T10:18:17.222Z,993.27
2019-05-06T10:19:17.207Z,993.27
2019-05-06T10:20:17.263Z,993.31
2019-05-06T10:21:17.199Z,993.24
2019-05-06T10:22:17.171Z,993.31
2019-05-06T10:23:17.169Z,993.28
2019-05-06T10:24:17.182Z,993.29
2019-05-06T10:25:17.162Z,993.23
2019-05-06T10:26:17.136Z,993.22
2019-05-06T10:27:17.126Z,993.27
2019-05-06T10:28:17.167Z,993.25
2019-05-06T10:29:17.118Z,993.23
2019-05-06T10:30:17.118Z,993.22
2019-05-06T10:31:17.076Z,993.21
2019-05-06T10:32:17.065Z,993.31
2019-05-06T10:33:17.060Z,993.24
2019-05-06T10:34:17.044Z,993.30
2019-05-06T10:35:17.055Z,993.28
2019-05-06T10:36:17.030Z,993.32
2019-05-06T10:37:19.262Z,993.29
2019-05-06T10:38:17.006Z,993.34
2019-05-06T10:39:16.993Z,993.37
2019-05-06T10:40:17.019Z,993.35
2019-05-06T10:41:17.005Z,993.39
2019-05-06T10:42:16.974Z,993.36
2019-05-06T10:43:16.947Z,993.37
2019-05-06T10:44:16.953Z,993.34
2019-05-06T10:45:16.931Z,993.36
2019-05-06T10:46:16.953Z,993.30
2019-05-06T10:47:16.905Z,993.31
2019-05-06T10:48:16.891Z,993.24
2019-05-06T10:49:16.939Z,993.30
2019-05-06T10:50:16.873Z,993.29
2019-05-06T10:51:17.227Z,993.26
2019-05-06T10:52:16.857Z,993.26
2019-05-06T10:53:16.882Z,993.29
2019-05-06T10:54:16.840Z,993.23
2019-05-06T10:55:16.814Z,993.20
2019-05-06T10:56:16.816Z,993.25
2019-05-06T10:57:16.804Z,993.22
2019-05-06T10:58:16.789Z,993.24
2019-05-06T10:59:16.819Z,993.16
2019-05-06T11:00:16.776Z,993.19
2019-05-06T11:01:16.773Z,993.19
2019-05-06T11:02:16.740Z,993.20
2019-05-06T11:03:16.740Z,993.19
2019-05-06T11:04:16.748Z,993.16
2019-05-06T11:05:16.732Z,993.16
2019-05-06T11:06:16.712Z,993.18
2019-05-06T11:07:27.595Z,993.11
2019-05-06T11:08:17.680Z,993.06
2019-05-06T11:09:16.674Z,993.09
2019-05-06T11:10:24.424Z,993.07
2019-05-06T11:11:31.557Z,993.10
2019-05-06T11:12:17.639Z,993.02
2019-05-06T11:13:16.622Z,993.00
2019-05-06T11:14:16.637Z,992.95
2019-05-06T11:15:16.606Z,992.94
2019-05-06T11:16:17.115Z,992.96
2019-05-06T11:17:16.580Z,992.96
2019-05-06T11:18:16.579Z,993.02
2019-05-06T11:19:16.755Z,993.00
2019-05-06T11:20:16.615Z,993.02
2019-05-06T11:21:16.581Z,992.93
2019-05-06T11:22:16.572Z,992.95
2019-05-06T11:23:16.524Z,992.96
2019-05-06T11:24:16.523Z,993.00
2019-05-06T11:25:16.494Z,992.99
2019-05-06T11:26:16.532Z,993.02
2019-05-06T11:27:28.036Z,992.99
2019-05-06T11:28:17.461Z,992.98
2019-05-06T11:29:16.459Z,992.95
2019-05-06T11:30:16.448Z,992.96
2019-05-06T11:31:16.580Z,992.95
2019-05-06T11:32:16.896Z,993.01
2019-05-06T11:33:16.416Z,992.98
2019-05-06T11:34:16.442Z,992.94
2019-05-06T11:35:16.428Z,992.91
2019-05-06T11:36:16.391Z,992.91
2019-05-06T11:37:16.373Z,992.91
2019-05-06T11:38:16.440Z,992.89
2019-05-06T11:39:16.391Z,992.91
2019-05-06T11:40:17.127Z,992.90
2019-05-06T11:41:16.400Z,992.90
2019-05-06T11:42:27.687Z,992.92
2019-05-06T11:43:17.307Z,992.92
2019-05-06T11:44:16.366Z,992.94
2019-05-06T11:45:16.290Z,992.97
2019-05-06T11:46:16.301Z,992.95
2019-05-06T11:47:16.253Z,992.98
2019-05-06T11:48:16.250Z,992.98
2019-05-06T11:49:16.264Z,992.95
2019-05-06T11:50:16.226Z,992.97
2019-05-06T11:51:16.326Z,992.99
2019-05-06T11:52:16.201Z,993.02
2019-05-06T11:53:16.188Z,993.06
2019-05-06T11:54:20.812Z,993.07
2019-05-06T11:55:28.848Z,993.17
2019-05-06T11:56:17.193Z,993.22
2019-05-06T11:57:16.164Z,993.20
2019-05-06T11:58:16.140Z,993.29
2019-05-06T11:59:16.130Z,993.28
2019-05-06T12:00:16.150Z,993.30
2019-05-06T12:01:16.184Z,993.33
2019-05-06T12:02:16.112Z,993.31
2019-05-06T12:03:16.097Z,993.31
2019-05-06T12:04:16.087Z,993.28
2019-05-06T12:05:16.065Z,993.28
2019-05-06T12:06:16.065Z,993.23
2019-05-06T12:07:16.337Z,993.21
2019-05-06T12:08:16.048Z,993.20
2019-05-06T12:09:17.157Z,993.20
2019-05-06T12:10:16.015Z,993.17
2019-05-06T12:11:16.019Z,993.19
2019-05-06T12:12:16.014Z,993.18
2019-05-06T12:13:16.009Z,993.21
2019-05-06T12:14:15.977Z,993.13
2019-05-06T12:15:15.968Z,993.14
2019-05-06T12:16:15.944Z,993.20
2019-05-06T12:17:15.950Z,993.17
2019-05-06T12:18:15.936Z,993.16
2019-05-06T12:19:15.911Z,993.15
2019-05-06T12:20:15.903Z,993.15
2019-05-06T12:21:19.169Z,993.11
2019-05-06T12:22:15.920Z,993.10
2019-05-06T12:23:15.909Z,993.08
2019-05-06T12:24:15.885Z,993.07
2019-05-06T12:25:15.859Z,993.06
2019-05-06T12:26:15.857Z,993.06
2019-05-06T12:27:15.847Z,993.09
2019-05-06T12:28:17.565Z,993.07